Time;durP1;ratioP1;P1;durP2;ratioP2;P2;SDS_P1;SDS_P2;PMS_P1;PMS_P2;Temp;Humidity;BMP_temperature;BMP_pressure;BME280_temperature;BME280_humidity;BME280_pressure;Samples;Min_cycle;Max_cycle;Signal;HPM_P1;HPM_P2
2023/03/16 00:01:37;;;;;;;4.50;1.27;;;6.70;38.50;;;;;;5052705;28;20173;-69
2023/03/16 00:04:03;;;;;;;4.80;1.40;;;6.50;39.00;;;;;;5052148;28;20168;-69
2023/03/16 00:06:29;;;;;;;4.67;1.43;;;6.30;40.00;;;;;;5049250;28;20184;-69
2023/03/16 00:08:57;;;;;;;4.40;1.10;;;6.20;40.70;;;;;;5052354;28;20195;-70
2023/03/16 00:11:24;;;;;;;4.82;1.38;;;6.30;40.00;;;;;;5052482;28;20175;-66
2023/03/16 00:13:50;;;;;;;4.80;1.30;;;6.40;39.70;;;;;;5052338;28;20386;-70
2023/03/16 00:16:16;;;;;;;4.80;1.30;;;6.40;39.70;;;;;;5050271;28;20199;-68
2023/03/16 00:18:42;;;;;;;5.10;1.40;;;6.50;38.80;;;;;;5049763;28;20702;-70
2023/03/16 00:21:08;;;;;;;4.45;1.10;;;6.50;39.10;;;;;;5051255;28;20426;-70
2023/03/16 00:23:35;;;;;;;4.60;1.23;;;6.50;39.10;;;;;;5052025;28;20214;-68
2023/03/16 00:26:04;;;;;;;4.80;1.30;;;6.40;39.50;;;;;;5052329;28;20172;-68
2023/03/16 00:28:34;;;;;;;4.50;1.15;;;6.50;39.30;;;;;;5048730;28;20230;-70
2023/03/16 00:31:13;;;;;;;4.50;1.20;;;6.50;39.60;;;;;;5050782;28;20176;-69
2023/03/16 00:33:41;;;;;;;4.75;1.20;;;6.50;39.50;;;;;;5051698;28;20164;-70
2023/03/16 00:36:10;;;;;;;4.53;1.10;;;6.20;40.60;;;;;;5052139;28;20192;-69
2023/03/16 00:38:38;;;;;;;4.60;1.20;;;6.20;40.30;;;;;;5044420;28;20204;-70
2023/03/16 00:41:05;;;;;;;4.60;1.20;;;6.40;39.60;;;;;;5051995;28;20176;-69
2023/03/16 00:43:39;;;;;;;4.57;1.10;;;6.40;40.00;;;;;;5051274;28;20195;-68
2023/03/16 00:46:06;;;;;;;4.90;1.45;;;6.40;40.20;;;;;;5050585;28;20184;-70
2023/03/16 00:48:37;;;;;;;5.90;1.85;;;6.10;40.80;;;;;;5049452;28;20203;-70
2023/03/16 00:51:05;;;;;;;4.68;1.10;;;5.80;42.50;;;;;;5050860;28;20196;-69
2023/03/16 00:53:35;;;;;;;4.75;1.20;;;5.30;44.90;;;;;;5050982;28;20206;-70
2023/03/16 00:56:03;;;;;;;4.65;1.08;;;5.30;45.50;;;;;;5051159;28;20290;-69
2023/03/16 00:58:34;;;;;;;4.70;1.10;;;5.60;44.80;;;;;;5048882;28;20210;-69
2023/03/16 01:01:06;;;;;;;5.22;1.42;;;5.50;44.10;;;;;;5050832;28;20543;-70
2023/03/16 01:03:32;;;;;;;4.70;1.15;;;5.50;45.10;;;;;;5051208;28;20191;-69
2023/03/16 01:06:03;;;;;;;4.80;1.20;;;5.90;44.00;;;;;;5051608;28;20188;-69
2023/03/16 01:08:39;;;;;;;4.80;1.20;;;6.40;42.70;;;;;;5049455;28;20450;-70
2023/03/16 01:11:10;;;;;;;4.78;1.17;;;6.60;40.90;;;;;;5034442;28;20690;-70
2023/03/16 01:13:37;;;;;;;4.78;1.20;;;6.80;40.00;;;;;;5048087;28;20192;-68
2023/03/16 01:16:04;;;;;;;4.68;1.10;;;6.80;39.70;;;;;;5050977;28;20245;-70
2023/03/16 01:18:33;;;;;;;4.63;1.05;;;6.90;39.00;;;;;;5050901;28;20226;-70
2023/03/16 01:21:03;;;;;;;4.68;1.15;;;6.80;40.30;;;;;;5051803;28;20175;-70
2023/03/16 01:23:30;;;;;;;4.70;1.10;;;6.90;39.60;;;;;;5050981;28;20184;-70
2023/03/16 01:25:56;;;;;;;7.38;2.45;;;6.90;39.00;;;;;;5042938;28;20211;-70
2023/03/16 01:28:25;;;;;;;5.10;1.40;;;7.10;38.60;;;;;;5049144;28;20212;-67
2023/03/16 01:30:56;;;;;;;4.78;1.42;;;7.00;38.60;;;;;;5051133;28;20175;-67
2023/03/16 01:33:23;;;;;;;4.70;1.10;;;6.60;39.30;;;;;;5050859;28;20179;-67
2023/03/16 01:36:02;;;;;;;4.68;1.10;;;6.40;40.30;;;;;;5048467;28;20212;-69
2023/03/16 01:38:28;;;;;;;4.70;1.10;;;6.40;40.30;;;;;;5051005;28;20245;-69
2023/03/16 01:40:54;;;;;;;4.60;1.00;;;6.50;40.40;;;;;;5051333;28;20588;-69
2023/03/16 01:43:23;;;;;;;4.65;1.08;;;6.60;40.30;;;;;;5053145;28;20218;-69
2023/03/16 01:46:04;;;;;;;4.70;1.10;;;6.90;39.30;;;;;;5048760;28;20287;-68
2023/03/16 01:48:36;;;;;;;4.72;1.13;;;6.60;40.00;;;;;;5052480;28;20601;-69
2023/03/16 01:51:13;;;;;;;4.70;1.10;;;6.50;40.50;;;;;;5055359;28;20226;-69
2023/03/16 01:53:41;;;;;;;4.65;1.00;;;6.70;40.00;;;;;;5054773;28;20214;-67
2023/03/16 01:56:11;;;;;;;4.90;1.30;;;6.50;41.10;;;;;;5051695;28;20253;-69
2023/03/16 01:58:38;;;;;;;4.65;1.10;;;6.70;39.90;;;;;;5054265;28;20210;-67
2023/03/16 02:01:04;;;;;;;4.70;1.10;;;6.10;41.00;;;;;;5052677;28;20180;-69
2023/03/16 02:03:34;;;;;;;4.80;1.20;;;6.00;42.10;;;;;;5054595;28;20667;-68
2023/03/16 02:06:15;;;;;;;4.65;1.10;;;5.90;42.80;;;;;;5055345;28;20489;-68
2023/03/16 02:08:44;;;;;;;5.40;1.40;;;6.20;41.70;;;;;;5052376;28;20237;-69
2023/03/16 02:11:11;;;;;;;4.90;1.20;;;6.30;41.30;;;;;;5054037;28;20184;-68
2023/03/16 02:13:36;;;;;;;4.68;1.10;;;6.20;41.40;;;;;;5054025;28;20188;-69
2023/03/16 02:16:05;;;;;;;4.80;1.20;;;6.40;40.90;;;;;;5055905;28;20199;-68
2023/03/16 02:18:31;;;;;;;4.75;1.10;;;6.40;40.70;;;;;;5052102;28;20741;-69
2023/03/16 02:21:18;;;;;;;4.90;1.20;;;6.40;41.20;;;;;;5054759;28;20195;-69
2023/03/16 02:23:46;;;;;;;4.70;1.20;;;6.70;39.80;;;;;;5052274;28;20654;-69
2023/03/16 02:26:21;;;;;;;4.68;1.00;;;6.50;39.70;;;;;;5049284;28;20219;-69
2023/03/16 02:28:59;;;;;;;4.70;1.10;;;6.20;40.80;;;;;;5051751;28;20565;-69
2023/03/16 02:31:25;;;;;;;5.78;1.70;;;6.70;40.00;;;;;;5054531;28;20179;-69
2023/03/16 02:33:52;;;;;;;4.77;1.20;;;6.70;39.40;;;;;;5052201;28;20188;-69
2023/03/16 02:36:19;;;;;;;4.70;1.00;;;6.60;39.50;;;;;;5053642;28;20497;-69
2023/03/16 02:38:45;;;;;;;4.70;1.10;;;6.20;41.60;;;;;;5052511;28;20199;-69
2023/03/16 02:41:14;;;;;;;4.70;1.10;;;6.30;41.40;;;;;;5052121;28;20188;-69
2023/03/16 02:43:46;;;;;;;4.90;1.33;;;6.30;40.40;;;;;;5051831;28;20441;-68
2023/03/16 02:46:13;;;;;;;4.80;1.23;;;6.10;40.60;;;;;;5054260;28;20172;-67
2023/03/16 02:48:50;;;;;;;4.70;1.10;;;6.30;40.60;;;;;;5052522;28;20207;-69
2023/03/16 02:51:16;;;;;;;6.20;1.33;;;6.50;40.30;;;;;;5052798;28;20187;-67
2023/03/16 02:53:42;;;;;;;5.40;1.57;;;6.30;40.40;;;;;;5051331;28;20188;-68
2023/03/16 02:56:08;;;;;;;9.03;2.17;;;5.20;42.20;;;;;;5052647;28;20230;-68
2023/03/16 02:58:33;;;;;;;5.72;1.88;;;4.60;45.30;;;;;;5052636;28;20211;-69
2023/03/16 03:01:00;;;;;;;7.43;2.97;;;4.50;45.00;;;;;;5049153;28;20184;-68
2023/03/16 03:03:25;;;;;;;4.70;1.10;;;4.60;44.70;;;;;;5053631;28;20218;-69
2023/03/16 03:05:51;;;;;;;5.00;1.33;;;4.60;44.30;;;;;;5051868;28;20651;-68
2023/03/16 03:08:19;;;;;;;4.67;1.10;;;4.60;44.50;;;;;;5053000;28;20736;-68
2023/03/16 03:10:45;;;;;;;4.70;1.10;;;4.20;46.40;;;;;;5051417;28;20604;-69
2023/03/16 03:13:11;;;;;;;4.80;1.20;;;4.40;45.70;;;;;;5052698;28;20212;-69
2023/03/16 03:15:36;;;;;;;4.70;1.10;;;4.50;45.10;;;;;;5051858;28;20488;-68
2023/03/16 03:18:03;;;;;;;5.30;1.30;;;4.60;44.90;;;;;;5053184;28;20694;-69
2023/03/16 03:20:29;;;;;;;4.85;1.30;;;4.90;43.50;;;;;;5052164;28;20188;-69
2023/03/16 03:22:54;;;;;;;4.70;1.20;;;5.20;42.90;;;;;;5053063;28;20184;-69
2023/03/16 03:25:21;;;;;;;7.30;2.57;;;5.30;42.10;;;;;;5051507;28;20539;-68
2023/03/16 03:27:49;;;;;;;5.75;1.48;;;5.30;42.30;;;;;;5052549;28;20207;-67
2023/03/16 03:30:18;;;;;;;4.70;1.20;;;5.40;41.70;;;;;;5052845;28;20184;-68
2023/03/16 03:32:44;;;;;;;5.22;1.42;;;5.30;41.50;;;;;;5046994;28;20646;-68
2023/03/16 03:35:11;;;;;;;5.10;1.50;;;5.40;41.40;;;;;;5053154;28;20221;-68
2023/03/16 03:37:38;;;;;;;5.05;1.52;;;4.90;42.40;;;;;;5051692;28;20199;-69
2023/03/16 03:40:05;;;;;;;8.98;3.38;;;4.50;43.70;;;;;;5053145;28;20180;-69
2023/03/16 03:42:30;;;;;;;6.63;2.65;;;4.40;44.70;;;;;;5051923;28;20239;-70
2023/03/16 03:44:56;;;;;;;5.93;1.57;;;4.60;44.10;;;;;;5049751;28;20203;-69
2023/03/16 03:47:21;;;;;;;4.60;1.00;;;4.50;43.90;;;;;;5052987;28;20183;-69
2023/03/16 03:49:47;;;;;;;5.73;1.40;;;4.40;44.70;;;;;;5052635;28;20724;-69
2023/03/16 03:52:12;;;;;;;4.77;1.10;;;4.50;45.40;;;;;;5052245;28;20183;-69
2023/03/16 03:54:38;;;;;;;4.80;1.30;;;4.20;45.30;;;;;;5050326;28;20207;-69
2023/03/16 03:57:04;;;;;;;4.80;1.20;;;4.60;44.90;;;;;;5051688;28;20176;-68
2023/03/16 03:59:30;;;;;;;4.90;1.52;;;5.00;42.90;;;;;;5052092;28;20200;-68
2023/03/16 04:01:56;;;;;;;4.90;1.10;;;4.70;45.00;;;;;;5051999;28;20175;-70
2023/03/16 04:04:21;;;;;;;5.10;1.20;;;5.10;44.90;;;;;;5052505;28;20710;-69
2023/03/16 04:06:47;;;;;;;5.00;1.20;;;5.20;43.90;;;;;;5050395;28;20195;-70
2023/03/16 04:09:13;;;;;;;5.10;1.20;;;5.70;43.00;;;;;;5052045;28;20195;-69
2023/03/16 04:11:39;;;;;;;5.20;1.30;;;5.60;41.90;;;;;;5051023;28;20184;-68
2023/03/16 04:14:05;;;;;;;5.05;1.15;;;4.90;42.80;;;;;;5052446;28;20175;-70
2023/03/16 04:16:31;;;;;;;5.23;1.30;;;4.40;44.30;;;;;;5051171;28;20290;-69
2023/03/16 04:18:57;;;;;;;5.03;1.20;;;3.90;45.50;;;;;;5051351;28;20211;-69
2023/03/16 04:21:23;;;;;;;5.82;1.63;;;3.40;49.40;;;;;;5051403;28;20603;-69
2023/03/16 04:23:53;;;;;;;5.00;1.10;;;4.10;47.80;;;;;;5051947;28;20210;-69
2023/03/16 04:26:19;;;;;;;4.85;1.10;;;4.00;46.60;;;;;;5052240;28;20199;-69
2023/03/16 04:28:46;;;;;;;5.20;1.30;;;3.50;49.10;;;;;;5050011;28;20956;-69
2023/03/16 04:31:11;;;;;;;5.00;1.15;;;3.40;49.50;;;;;;5052419;28;20176;-69
2023/03/16 04:33:38;;;;;;;6.43;1.57;;;3.30;49.50;;;;;;5050039;28;20233;-69
2023/03/16 04:36:05;;;;;;;4.93;1.10;;;3.30;49.70;;;;;;5051809;28;20743;-69
2023/03/16 04:38:32;;;;;;;5.00;1.20;;;3.40;49.60;;;;;;5050263;28;20306;-69
2023/03/16 04:40:59;;;;;;;4.90;1.05;;;3.70;49.20;;;;;;5050552;28;20180;-69
2023/03/16 04:43:25;;;;;;;5.00;1.20;;;4.10;49.40;;;;;;5050830;28;20180;-70
2023/03/16 04:45:50;;;;;;;5.05;1.20;;;4.80;46.30;;;;;;5051975;28;20176;-70
2023/03/16 04:48:16;;;;;;;5.40;1.30;;;4.80;45.40;;;;;;5049338;28;20581;-69
2023/03/16 04:50:42;;;;;;;5.40;1.40;;;5.00;44.90;;;;;;5043383;28;20180;-69
2023/03/16 04:53:08;;;;;;;4.90;1.10;;;4.90;45.20;;;;;;5050362;28;20848;-69
2023/03/16 04:55:33;;;;;;;5.80;1.50;;;5.00;43.40;;;;;;5051209;28;20291;-68
2023/03/16 04:58:00;;;;;;;4.77;1.10;;;5.10;43.60;;;;;;5058523;28;20195;-70
2023/03/16 05:00:26;;;;;;;4.90;1.20;;;5.30;42.80;;;;;;5054655;28;20549;-69
2023/03/16 05:02:52;;;;;;;4.90;1.15;;;5.70;41.00;;;;;;5053540;28;20193;-69
2023/03/16 05:05:18;;;;;;;5.37;1.43;;;5.40;39.90;;;;;;5049637;28;20269;-69
2023/03/16 05:07:44;;;;;;;5.00;1.10;;;4.70;41.10;;;;;;5051510;28;20207;-69
2023/03/16 05:10:12;;;;;;;5.63;1.87;;;4.50;40.10;;;;;;5049694;28;20198;-69
2023/03/16 05:12:37;;;;;;;5.00;1.10;;;3.90;42.40;;;;;;5050255;28;20434;-69
2023/03/16 05:15:04;;;;;;;5.70;1.73;;;3.30;45.50;;;;;;5049442;28;20575;-69
2023/03/16 05:17:30;;;;;;;4.78;1.08;;;3.20;46.40;;;;;;5049444;28;20933;-68
2023/03/16 05:19:56;;;;;;;5.10;1.40;;;3.00;46.50;;;;;;5050566;28;20588;-69
2023/03/16 05:22:22;;;;;;;4.90;1.33;;;2.80;48.70;;;;;;5049301;28;20190;-70
2023/03/16 05:24:48;;;;;;;5.43;1.60;;;2.90;47.80;;;;;;5051190;28;20176;-70
2023/03/16 05:27:13;;;;;;;4.90;1.40;;;3.10;47.10;;;;;;5050626;28;20899;-69
2023/03/16 05:29:39;;;;;;;4.70;1.20;;;2.80;48.50;;;;;;5048520;28;20200;-67
2023/03/16 05:32:05;;;;;;;4.50;1.10;;;2.70;49.10;;;;;;5048566;28;20177;-69
2023/03/16 05:34:31;;;;;;;4.50;1.20;;;2.60;51.00;;;;;;5050176;28;20410;-69
2023/03/16 05:36:57;;;;;;;4.50;1.00;;;3.00;49.10;;;;;;5051358;28;20498;-69
2023/03/16 05:39:23;;;;;;;4.70;1.43;;;2.50;50.60;;;;;;5049612;28;20551;-67
2023/03/16 05:41:48;;;;;;;4.50;1.10;;;2.60;51.10;;;;;;5048520;28;20795;-68
2023/03/16 05:44:14;;;;;;;4.40;1.10;;;2.10;53.10;;;;;;5060437;28;20171;-69
2023/03/16 05:46:39;;;;;;;4.40;1.10;;;1.90;56.90;;;;;;5057762;28;20198;-69
2023/03/16 05:49:05;;;;;;;4.47;1.20;;;2.40;55.30;;;;;;5058984;28;20578;-69
2023/03/16 05:51:31;;;;;;;4.40;1.10;;;2.50;53.60;;;;;;5051361;28;20585;-68
2023/03/16 05:53:56;;;;;;;4.60;1.30;;;2.50;52.30;;;;;;5048594;28;20202;-69
2023/03/16 05:56:26;;;;;;;4.47;1.17;;;2.20;53.90;;;;;;5050819;28;20633;-69
2023/03/16 05:58:53;;;;;;;4.50;1.20;;;2.50;53.90;;;;;;5050956;28;21122;-69
2023/03/16 06:01:19;;;;;;;4.40;1.10;;;2.10;53.20;;;;;;5050476;28;20211;-66
2023/03/16 06:03:47;;;;;;;12.83;2.00;;;2.20;53.80;;;;;;5048731;28;20266;-68
2023/03/16 06:06:14;;;;;;;4.45;1.17;;;2.10;54.80;;;;;;5050366;28;20453;-69
2023/03/16 06:08:39;;;;;;;4.97;1.58;;;2.40;54.10;;;;;;5050925;28;20269;-69
2023/03/16 06:11:05;;;;;;;4.53;1.23;;;2.40;53.80;;;;;;5035685;28;20184;-68
2023/03/16 06:13:31;;;;;;;5.47;1.37;;;2.60;53.30;;;;;;5049719;28;20284;-69
2023/03/16 06:15:56;;;;;;;6.60;2.80;;;2.90;52.10;;;;;;5049597;28;20977;-69
2023/03/16 06:18:22;;;;;;;4.40;1.10;;;3.00;51.00;;;;;;5049516;28;20212;-69
2023/03/16 06:20:48;;;;;;;4.83;1.20;;;3.10;50.80;;;;;;5049229;28;20172;-69
2023/03/16 06:23:14;;;;;;;4.50;1.10;;;3.00;51.10;;;;;;5050637;28;20221;-69
2023/03/16 06:25:39;;;;;;;4.50;1.10;;;3.20;50.50;;;;;;5049031;28;20191;-69
2023/03/16 06:28:06;;;;;;;4.70;1.30;;;2.60;52.40;;;;;;5049707;28;20457;-69
2023/03/16 06:30:32;;;;;;;5.22;1.52;;;2.60;54.40;;;;;;5053961;28;20582;-68
2023/03/16 06:32:58;;;;;;;4.80;1.37;;;3.10;51.90;;;;;;5054403;28;20671;-69
2023/03/16 06:35:25;;;;;;;4.70;1.20;;;3.10;51.50;;;;;;5052989;28;20211;-69
2023/03/16 06:37:50;;;;;;;5.38;1.60;;;3.20;51.50;;;;;;5053533;28;20204;-67
2023/03/16 06:40:16;;;;;;;4.67;1.10;;;3.50;50.50;;;;;;5050848;28;20267;-66
2023/03/16 06:42:42;;;;;;;4.77;1.17;;;3.10;51.10;;;;;;5053165;28;20184;-69
2023/03/16 06:45:09;;;;;;;4.88;1.20;;;2.70;55.60;;;;;;5054032;28;20580;-69
2023/03/16 06:47:35;;;;;;;5.10;1.30;;;2.80;55.10;;;;;;5053881;28;20275;-69
2023/03/16 06:50:02;;;;;;;4.82;1.10;;;2.60;56.00;;;;;;5051484;28;20705;-69
2023/03/16 06:52:27;;;;;;;5.00;1.20;;;3.00;53.60;;;;;;5044609;28;20189;-69
2023/03/16 06:54:53;;;;;;;4.90;1.20;;;2.70;55.70;;;;;;5053890;28;20238;-69
2023/03/16 06:57:18;;;;;;;5.00;1.20;;;2.50;57.60;;;;;;5054612;28;20251;-69
2023/03/16 06:59:44;;;;;;;5.30;1.40;;;2.60;57.80;;;;;;5054557;28;20203;-70
2023/03/16 07:02:13;;;;;;;6.30;2.40;;;3.00;57.10;;;;;;5051333;28;20183;-70
2023/03/16 07:04:39;;;;;;;5.00;1.20;;;3.30;55.50;;;;;;5054146;28;20195;-68
2023/03/16 07:07:05;;;;;;;5.05;1.20;;;3.20;53.80;;;;;;5054006;28;20176;-68
2023/03/16 07:09:30;;;;;;;5.10;1.30;;;2.70;57.10;;;;;;5053935;28;20191;-69
2023/03/16 07:11:56;;;;;;;5.00;1.13;;;2.50;60.50;;;;;;5051139;28;20172;-69
2023/03/16 07:14:23;;;;;;;5.00;1.20;;;3.00;59.00;;;;;;5053303;28;20174;-69
2023/03/16 07:16:49;;;;;;;5.00;1.20;;;2.50;62.10;;;;;;5053863;28;20179;-68
2023/03/16 07:19:14;;;;;;;7.10;2.90;;;2.60;63.00;;;;;;5052573;28;20583;-70
2023/03/16 07:21:40;;;;;;;5.10;1.23;;;2.70;60.00;;;;;;5052557;28;20180;-70
2023/03/16 07:24:08;;;;;;;5.00;1.27;;;2.70;60.80;;;;;;5052647;28;20337;-76
2023/03/16 07:26:33;;;;;;;4.95;1.20;;;3.10;59.30;;;;;;5053243;28;20488;-75
2023/03/16 07:28:59;;;;;;;4.97;1.17;;;2.60;60.60;;;;;;5054613;28;20566;-74
2023/03/16 07:31:26;;;;;;;5.05;1.25;;;2.60;64.00;;;;;;5055768;28;20414;-74
2023/03/16 07:33:51;;;;;;;4.90;1.10;;;2.80;65.10;;;;;;5051444;28;20195;-75
2023/03/16 07:36:17;;;;;;;4.90;1.10;;;3.20;59.20;;;;;;5051880;28;20565;-68
2023/03/16 07:38:43;;;;;;;4.90;1.10;;;2.90;62.80;;;;;;5051983;28;20593;-69
2023/03/16 07:41:09;;;;;;;5.00;1.57;;;3.50;59.40;;;;;;5047038;28;20184;-69
2023/03/16 07:43:34;;;;;;;4.90;1.42;;;3.40;58.00;;;;;;5046528;28;20180;-70
2023/03/16 07:46:00;;;;;;;7.00;2.30;;;3.70;57.20;;;;;;5053431;28;20180;-70
2023/03/16 07:48:26;;;;;;;4.80;1.30;;;3.70;55.40;;;;;;5046410;28;20203;-69
2023/03/16 07:50:53;;;;;;;4.60;1.20;;;3.60;57.00;;;;;;5050494;28;20192;-69
2023/03/16 07:53:19;;;;;;;4.57;1.10;;;3.90;56.00;;;;;;5052717;28;20713;-69
2023/03/16 07:55:45;;;;;;;4.53;1.10;;;3.80;56.70;;;;;;5050225;28;20268;-70
2023/03/16 07:58:11;;;;;;;4.43;1.10;;;4.00;56.80;;;;;;5054101;28;20663;-68
2023/03/16 08:00:37;;;;;;;4.50;1.20;;;4.00;55.60;;;;;;5054773;28;20850;-69
2023/03/16 08:03:03;;;;;;;4.43;1.20;;;4.10;55.90;;;;;;5057999;28;20168;-69
2023/03/16 08:05:29;;;;;;;15.60;2.70;;;4.50;54.50;;;;;;5060452;28;20176;-69
2023/03/16 08:07:57;;;;;;;4.40;1.30;;;4.70;51.90;;;;;;5056053;28;20208;-68
2023/03/16 08:10:24;;;;;;;4.28;1.23;;;4.60;52.40;;;;;;5057974;28;20187;-69
2023/03/16 08:12:50;;;;;;;4.20;1.20;;;4.80;52.20;;;;;;5057693;28;20233;-69
2023/03/16 08:15:16;;;;;;;5.68;1.65;;;4.40;53.60;;;;;;5057198;28;20196;-67
2023/03/16 08:17:42;;;;;;;4.40;1.30;;;4.50;53.70;;;;;;5056387;28;20211;-68
2023/03/16 08:20:11;;;;;;;4.20;1.20;;;4.60;54.20;;;;;;5051029;28;20995;-69
2023/03/16 08:22:36;;;;;;;4.10;1.05;;;4.30;54.20;;;;;;5053292;28;20199;-67
2023/03/16 08:25:07;;;;;;;4.40;1.40;;;4.60;53.60;;;;;;5053732;28;20211;-69
2023/03/16 08:27:32;;;;;;;4.00;1.10;;;4.60;53.70;;;;;;5050612;28;20230;-64
2023/03/16 08:30:03;;;;;;;4.07;1.10;;;4.70;53.90;;;;;;5051540;28;20180;-70
2023/03/16 08:32:29;;;;;;;4.00;1.20;;;4.50;54.60;;;;;;5055283;28;20660;-65
2023/03/16 08:34:56;;;;;;;4.00;1.10;;;4.40;55.80;;;;;;5056376;28;20207;-68
2023/03/16 08:37:22;;;;;;;4.00;1.10;;;4.40;56.40;;;;;;5052937;28;20758;-69
2023/03/16 08:39:50;;;;;;;3.90;1.10;;;4.70;54.30;;;;;;5050124;28;20306;-69
2023/03/16 08:42:17;;;;;;;4.05;1.10;;;5.00;53.50;;;;;;5053298;28;20554;-68
2023/03/16 08:44:42;;;;;;;4.50;1.85;;;4.90;53.60;;;;;;5049344;28;20267;-69
2023/03/16 08:47:09;;;;;;;3.80;1.10;;;4.90;53.80;;;;;;5050833;28;20318;-69
2023/03/16 08:49:35;;;;;;;4.30;1.60;;;5.40;52.00;;;;;;5049928;28;20192;-69
2023/03/16 08:52:02;;;;;;;4.78;1.85;;;5.20;51.70;;;;;;5053389;28;20242;-68
2023/03/16 08:54:27;;;;;;;4.15;1.50;;;5.10;52.60;;;;;;5054774;28;20780;-69
2023/03/16 08:56:54;;;;;;;3.70;1.20;;;5.40;51.90;;;;;;5052425;28;20263;-69
2023/03/16 08:59:20;;;;;;;3.70;1.10;;;5.80;49.90;;;;;;5051915;28;20194;-69
2023/03/16 09:01:45;;;;;;;4.40;1.80;;;6.30;48.10;;;;;;5048205;28;20658;-69
2023/03/16 09:04:11;;;;;;;3.93;1.37;;;6.40;46.70;;;;;;5051357;28;20172;-69
2023/03/16 09:06:38;;;;;;;3.70;1.25;;;6.70;45.80;;;;;;5047321;28;20210;-69
2023/03/16 09:09:03;;;;;;;4.97;1.83;;;6.70;46.40;;;;;;5050524;28;20212;-69
2023/03/16 09:11:32;;;;;;;3.70;1.30;;;6.70;46.70;;;;;;5050957;28;20195;-69
2023/03/16 09:13:58;;;;;;;3.53;1.10;;;6.80;45.20;;;;;;5052272;28;20191;-68
2023/03/16 09:16:24;;;;;;;3.70;1.10;;;6.60;45.40;;;;;;5051438;28;20294;-68
2023/03/16 09:18:51;;;;;;;3.60;1.30;;;6.80;44.30;;;;;;5047187;28;20299;-68
2023/03/16 09:21:17;;;;;;;3.50;1.10;;;7.10;44.40;;;;;;5049385;28;20790;-69
2023/03/16 09:23:43;;;;;;;3.70;1.17;;;7.00;45.80;;;;;;5050334;28;20259;-69
2023/03/16 09:26:11;;;;;;;3.70;1.30;;;7.20;42.70;;;;;;5049751;28;20175;-69
2023/03/16 09:28:39;;;;;;;4.50;1.65;;;7.70;42.90;;;;;;5048902;28;20206;-69
2023/03/16 09:31:06;;;;;;;3.72;1.20;;;8.10;40.40;;;;;;5049860;28;20179;-70
2023/03/16 09:33:34;;;;;;;3.80;1.30;;;8.50;39.70;;;;;;5054780;28;20265;-70
2023/03/16 09:36:00;;;;;;;3.92;1.40;;;8.80;39.80;;;;;;5055964;28;20243;-70
2023/03/16 09:38:26;;;;;;;4.43;1.58;;;9.60;37.30;;;;;;5049926;28;20245;-70
2023/03/16 09:41:02;;;;;;;3.70;1.20;;;9.90;35.40;;;;;;5052055;28;20186;-70
2023/03/16 09:43:48;;;;;;;4.03;1.35;;;9.70;35.00;;;;;;5057773;28;20664;-71
2023/03/16 09:46:22;;;;;;;3.40;1.20;;;9.20;37.00;;;;;;5055319;28;20161;-70
2023/03/16 09:48:48;;;;;;;3.38;1.30;;;9.90;33.70;;;;;;5042928;28;20284;-70
2023/03/16 09:51:52;;;;;;;3.00;1.00;;;10.30;28.60;;;;;;5055645;28;20218;-69
2023/03/16 09:54:46;;;;;;;2.80;1.20;;;10.60;27.90;;;;;;5055115;28;20179;-68
2023/03/16 09:57:39;;;;;;;2.67;1.20;;;11.10;26.00;;;;;;5040624;28;20191;-69
2023/03/16 10:00:21;;;;;;;2.70;1.20;;;10.90;27.20;;;;;;5031387;28;20238;-69
2023/03/16 10:03:00;;;;;;;2.20;1.10;;;11.00;26.70;;;;;;5044077;28;20268;-69
2023/03/16 10:05:26;;;;;;;2.20;1.10;;;10.80;26.30;;;;;;5049946;28;20453;-67
2023/03/16 10:08:12;;;;;;;2.20;1.20;;;11.70;25.30;;;;;;5049270;28;21110;-69
2023/03/16 10:10:54;;;;;;;2.10;1.20;;;11.70;24.70;;;;;;5050262;28;20180;-69
2023/03/16 10:13:49;;;;;;;2.00;1.10;;;12.10;24.20;;;;;;5054898;28;20462;-68
2023/03/16 10:16:37;;;;;;;2.00;1.10;;;12.40;24.30;;;;;;5051258;28;20486;-68
2023/03/16 10:19:24;;;;;;;1.90;1.20;;;12.20;23.80;;;;;;5047337;28;20527;-69
2023/03/16 10:21:53;;;;;;;1.80;1.00;;;12.10;23.10;;;;;;5053698;28;20771;-69
2023/03/16 10:24:40;;;;;;;1.80;1.00;;;12.20;23.70;;;;;;5054596;28;20492;-70
2023/03/16 10:27:21;;;;;;;1.80;1.00;;;12.00;22.90;;;;;;5035117;28;20398;-68
2023/03/16 10:29:47;;;;;;;2.20;1.40;;;12.30;25.00;;;;;;5046899;28;20434;-69
2023/03/16 10:32:22;;;;;;;1.90;1.20;;;12.60;22.70;;;;;;5054303;28;20431;-70
2023/03/16 10:34:57;;;;;;;1.80;1.20;;;12.90;22.70;;;;;;5050625;28;20965;-69
2023/03/16 10:37:24;;;;;;;1.83;1.20;;;13.20;23.60;;;;;;5051948;28;20434;-68
2023/03/16 10:39:50;;;;;;;1.80;1.13;;;13.60;21.40;;;;;;5049395;28;20434;-70
2023/03/16 10:42:18;;;;;;;1.83;1.20;;;13.60;21.40;;;;;;5054489;28;20462;-68
2023/03/16 10:44:45;;;;;;;2.10;1.50;;;13.80;21.50;;;;;;5052879;28;20233;-67
2023/03/16 10:47:24;;;;;;;2.00;1.40;;;13.80;22.20;;;;;;5046473;28;20476;-67
2023/03/16 10:49:50;;;;;;;1.70;1.10;;;14.10;21.40;;;;;;5054301;28;20909;-69
2023/03/16 10:52:23;;;;;;;1.83;1.20;;;13.90;21.20;;;;;;5054351;28;20479;-68
2023/03/16 10:54:56;;;;;;;1.73;1.10;;;14.30;21.90;;;;;;5054044;28;20399;-65
2023/03/16 10:57:33;;;;;;;1.83;1.20;;;14.70;20.30;;;;;;5047771;28;21180;-68
2023/03/16 11:00:13;;;;;;;1.83;1.17;;;15.10;18.90;;;;;;5053487;28;20788;-68
2023/03/16 11:02:39;;;;;;;3.70;1.50;;;15.00;20.60;;;;;;5052622;28;20444;-66
2023/03/16 11:05:24;;;;;;;1.73;1.10;;;15.40;19.20;;;;;;5052063;28;20431;-67
2023/03/16 11:07:51;;;;;;;1.90;1.20;;;16.00;18.20;;;;;;5050528;28;20450;-68
2023/03/16 11:10:44;;;;;;;2.37;1.50;;;16.40;17.70;;;;;;5055313;28;20495;-69
2023/03/16 11:13:16;;;;;;;2.03;1.43;;;17.40;16.60;;;;;;4966002;28;20503;-67
2023/03/16 11:16:15;;;;;;;2.57;1.60;;;17.90;16.60;;;;;;4959393;28;20536;-68
2023/03/16 11:18:46;;;;;;;1.93;1.20;;;17.50;16.10;;;;;;4959503;29;20457;-68
2023/03/16 11:21:17;;;;;;;2.07;1.20;;;17.70;15.90;;;;;;4960894;28;20935;-68
2023/03/16 11:23:50;;;;;;;2.10;1.20;;;19.00;15.30;;;;;;4953368;28;20459;-68
2023/03/16 11:26:24;;;;;;;2.30;1.30;;;18.80;15.70;;;;;;4939979;29;20810;-68
2023/03/16 11:29:00;;;;;;;2.90;1.67;;;19.30;14.50;;;;;;4933908;29;20434;-68
2023/03/16 11:31:41;;;;;;;3.03;1.40;;;19.00;14.10;;;;;;4943343;28;20550;-68
2023/03/16 11:34:18;;;;;;;2.87;1.30;;;19.40;15.50;;;;;;4959213;28;20823;-68
2023/03/16 11:36:53;;;;;;;2.97;1.40;;;19.80;14.30;;;;;;4956557;28;20478;-67
2023/03/16 11:40:11;;;;;;;3.20;1.37;;;19.30;13.60;;;;;;4961618;28;20462;-67
2023/03/16 11:42:41;;;;;;;3.53;1.47;;;19.60;13.70;;;;;;4892540;29;20523;-67
2023/03/16 11:45:56;;;;;;;3.60;1.40;;;19.20;13.30;;;;;;4945183;28;20522;-66
2023/03/16 11:48:36;;;;;;;2.90;1.30;;;20.60;13.60;;;;;;4919383;29;20446;-68
2023/03/16 11:51:05;;;;;;;2.97;1.20;;;20.70;12.70;;;;;;4960604;28;20632;-68
2023/03/16 11:53:48;;;;;;;5.00;1.30;;;20.30;12.80;;;;;;4958670;28;20448;-67
2023/03/16 11:56:27;;;;;;;3.63;1.60;;;20.30;13.60;;;;;;4961101;28;20522;-68
2023/03/16 11:59:03;;;;;;;3.20;1.30;;;19.40;12.60;;;;;;4965264;28;20437;-68
2023/03/16 12:02:08;;;;;;;2.93;1.20;;;19.90;12.20;;;;;;4972051;28;21138;-68
2023/03/16 12:04:35;;;;;;;3.20;1.50;;;20.80;12.50;;;;;;4971554;28;20909;-68
2023/03/16 12:07:22;;;;;;;3.53;1.50;;;20.80;12.40;;;;;;4965547;28;20995;-67
2023/03/16 12:09:59;;;;;;;3.00;1.30;;;20.80;13.50;;;;;;4961585;28;20475;-68
2023/03/16 12:12:48;;;;;;;3.00;1.27;;;21.50;11.80;;;;;;4952714;28;20780;-68
2023/03/16 12:15:44;;;;;;;3.00;1.20;;;20.70;11.80;;;;;;4956376;28;20552;-68
2023/03/16 12:18:22;;;;;;;2.97;1.20;;;20.80;11.90;;;;;;4968437;28;20474;-68
2023/03/16 12:20:59;;;;;;;2.87;1.03;;;21.40;12.00;;;;;;4962038;28;20502;-67
2023/03/16 12:23:39;;;;;;;3.13;1.30;;;20.00;12.20;;;;;;4967815;28;20474;-68
2023/03/16 12:26:05;;;;;;;3.20;1.40;;;20.30;14.10;;;;;;5048777;28;20422;-68
2023/03/16 12:28:32;;;;;;;3.50;1.40;;;20.90;11.10;;;;;;5051400;28;20806;-68
2023/03/16 12:31:16;;;;;;;3.17;1.43;;;20.00;13.30;;;;;;5051150;28;20207;-66
2023/03/16 12:34:03;;;;;;;3.00;1.30;;;19.90;12.50;;;;;;5042859;28;20476;-67
2023/03/16 12:36:56;;;;;;;3.20;1.37;;;19.90;13.30;;;;;;5050495;28;20465;-65
2023/03/16 12:39:44;;;;;;;3.20;1.30;;;20.10;11.90;;;;;;5046292;28;20459;-68
2023/03/16 12:42:16;;;;;;;3.30;1.30;;;18.90;13.20;;;;;;5049303;28;20428;-68
2023/03/16 12:44:56;;;;;;;3.73;1.60;;;18.40;13.10;;;;;;5039508;28;20445;-69
2023/03/16 12:47:32;;;;;;;3.10;1.20;;;18.20;13.60;;;;;;5049888;28;20937;-69
2023/03/16 12:50:10;;;;;;;3.20;1.20;;;17.70;14.80;;;;;;5047893;28;20450;-72
2023/03/16 12:52:52;;;;;;;3.50;1.50;;;18.10;13.50;;;;;;5045613;28;20409;-69
2023/03/16 12:55:23;;;;;;;3.30;1.30;;;18.00;12.90;;;;;;5051992;28;20444;-69
2023/03/16 12:57:57;;;;;;;3.30;1.30;;;17.50;13.70;;;;;;5032640;28;20440;-69
2023/03/16 13:00:34;;;;;;;3.10;1.23;;;18.20;14.40;;;;;;5039388;28;20443;-69
2023/03/16 13:03:01;;;;;;;3.20;1.30;;;18.30;14.40;;;;;;5044628;28;20859;-69
2023/03/16 13:05:43;;;;;;;3.53;1.30;;;18.60;13.10;;;;;;5043332;28;20445;-68
2023/03/16 13:08:16;;;;;;;3.30;1.50;;;20.00;14.10;;;;;;5042455;28;20439;-67
2023/03/16 13:10:58;;;;;;;3.30;1.50;;;20.10;12.30;;;;;;5040091;28;20815;-69